CST,Max TemperatureF,Mean TemperatureF,Min TemperatureF,Max Dew PointF,MeanDew PointF,Min DewpointF,Max Humidity, Mean Humidity, Min Humidity, Max Sea Level PressureIn, Mean Sea Level PressureIn, Min Sea Level PressureIn, Max VisibilityMiles, Mean VisibilityMiles, Min VisibilityMiles, Max Wind SpeedMPH, Mean Wind SpeedMPH, Max Gust SpeedMPH,PrecipitationIn, CloudCover, Events, WindDirDegrees
2012-12-1,58,43,28,33,30,25,85,61,36,29.91,29.81,29.74,10,9,7,21,6,35,0.00,1,,246
2012-12-2,62,43,23,37,31,22,92,62,35,29.95,29.80,29.57,10,10,10,22,11,28,0.00,0,,164
2012-12-3,59,49,38,39,28,19,76,50,24,30.06,29.80,29.49,10,10,10,33,17,43,T,1,Rain,268
2012-12-4,44,34,24,23,20,17,72,55,43,30.32,30.24,30.08,10,10,10,16,7,21,0.00,0,,335
2012-12-5,56,41,25,27,21,16,69,47,29,30.28,29.94,29.69,10,10,10,26,16,33,0.00,0,,162
2012-12-6,54,43,32,28,25,22,64,50,35,30.06,29.97,29.75,10,10,10,24,12,30,T,7,,320
2012-12-7,33,31,29,28,27,23,92,78,64,30.07,30.00,29.94,10,5,0,18,6,22,0.11,8,Fog-Snow,91
2012-12-8,32,29,25,28,26,23,92,89,85,30.06,29.86,29.75,10,4,0,28,13,33,0.07,7,Fog-Snow,150
2012-12-9,32,17,2,29,12,-4,93,83,73,30.33,30.03,29.74,10,3,0,38,23,54,0.02,5,Fog-Snow,325
2012-12-10,27,11,-6,19,2,-10,87,77,65,30.27,30.04,29.90,10,9,2,15,8,29,0.00,3,,216
2012-12-11,33,26,18,24,20,16,91,77,63,29.95,29.91,29.83,10,10,7,17,9,23,T,4,Snow,230
2012-12-12,43,32,20,26,20,13,74,60,45,29.82,29.79,29.76,10,10,10,15,9,17,0.00,0,,170
2012-12-13,30,22,14,19,14,10,92,78,63,30.15,30.05,29.82,10,10,8,18,7,21,0.00,0,,316
2012-12-14,52,34,14,32,22,12,92,64,36,30.10,29.87,29.62,10,8,6,15,7,18,T,1,Rain,140
2012-12-15,36,29,22,34,28,17,96,85,74,29.80,29.64,29.53,10,4,2,23,13,30,0.36,7,Rain,327
2012-12-16,27,23,18,25,21,16,96,90,84,29.89,29.84,29.78,10,7,1,14,7,18,0.00,7,,3
2012-12-17,28,27,25,25,24,22,92,88,84,29.80,29.72,29.59,10,8,4,18,6,21,T,8,,136
2012-12-18,31,26,21,27,24,13,100,84,68,29.90,29.65,29.51,10,4,0,20,6,23,0.16,6,Fog-Snow,262
2012-12-19,28,21,14,19,15,10,84,76,68,30.14,30.03,29.90,10,10,10,20,7,26,0.00,5,,318
2012-12-20,17,8,-1,11,6,-2,92,81,73,30.32,30.20,30.08,10,9,1,22,11,25,T,3,Snow,313
2012-12-21,25,12,-2,17,4,-7,87,78,66,30.36,30.25,30.11,10,9,4,16,8,20,0.00,1,,133
2012-12-22,19,12,4,13,8,1,88,82,77,30.20,30.11,30.02,10,9,5,18,9,22,0.00,0,,336
2012-12-23,15,8,0,46,5,-3,93,83,73,30.19,30.13,29.89,10,10,2,15,7,20,T,4,Rain,344
2012-12-24,11,3,-5,5,-3,-11,86,78,69,30.51,30.29,30.05,10,9,4,20,13,25,T,2,Snow,330
2012-12-25,5,-1,-7,-2,-6,-11,82,77,72,30.67,30.58,30.49,10,10,10,13,5,15,0.00,2,,317
2012-12-26,13,7,1,7,2,-3,83,75,70,30.47,30.32,30.21,10,10,10,15,8,20,0.00,4,,133
2012-12-27,20,16,12,16,14,6,93,85,77,30.20,30.09,30.02,10,3,0,15,10,18,0.20,8,Fog-Snow,111
2012-12-28,17,11,5,13,9,1,92,85,79,30.19,30.12,30.04,10,6,2,14,7,15,0.00,7,Snow,320
2012-12-29,19,9,-1,12,6,-5,92,85,71,30.22,30.17,30.09,10,8,1,13,6,16,0.00,3,,233
2012-12-30,23,13,3,16,9,1,91,79,67,30.21,30.09,29.93,10,10,10,23,11,32,0.00,1,,226
2012-12-31,22,20,17,18,13,11,84,76,68,30.29,30.25,30.16,10,10,10,14,6,16,0.00,8,,2